Time;durP1;ratioP1;P1;durP2;ratioP2;P2;SDS_P1;SDS_P2;PMS_P1;PMS_P2;Temp;Humidity;BMP_temperature;BMP_pressure;BME280_temperature;BME280_humidity;BME280_pressure;Samples;Min_cycle;Max_cycle;Signal;HPM_P1;HPM_P2
2021/12/24 00:01:44;;;;;;;41.92;7.35;;;;;;;7.19;100.00;99474.25;5011730;28;20041;-84
2021/12/24 00:04:10;;;;;;;32.53;7.70;;;;;;;7.29;100.00;99473.16;5016284;28;20121;-83
2021/12/24 00:06:36;;;;;;;23.70;5.95;;;;;;;7.22;100.00;99462.38;5038354;28;20044;-84
2021/12/24 00:09:06;;;;;;;44.03;7.03;;;;;;;7.23;100.00;99459.50;5002278;28;20120;-84
2021/12/24 00:11:33;;;;;;;25.45;5.82;;;;;;;7.15;100.00;99464.13;4999635;28;20056;-84
2021/12/24 00:14:01;;;;;;;23.33;6.40;;;;;;;7.17;100.00;99462.94;5012413;28;20124;-84
2021/12/24 00:16:36;;;;;;;23.33;5.95;;;;;;;7.22;100.00;99452.53;5024696;28;20094;-83
2021/12/24 00:38:01;;;;;;;48.60;11.70;;;;;;;7.43;100.00;99449.06;5008142;28;20040;-82
2021/12/24 00:40:27;;;;;;;40.15;9.05;;;;;;;7.51;100.00;99461.50;5031781;28;20123;-84
2021/12/24 00:42:55;;;;;;;55.50;12.43;;;;;;;7.54;100.00;99460.28;4986886;28;20033;-83
2021/12/24 00:45:26;;;;;;;45.15;10.90;;;;;;;7.52;100.00;99465.00;5026810;28;20118;-82
2021/12/24 00:47:53;;;;;;;22.83;5.38;;;;;;;7.46;100.00;99453.19;5027102;28;20096;-84
2021/12/24 00:50:23;;;;;;;40.83;9.38;;;;;;;7.56;100.00;99464.44;5016513;28;20037;-84
2021/12/24 00:52:52;;;;;;;64.72;16.70;;;;;;;7.63;100.00;99451.97;5021290;28;20505;-82
2021/12/24 00:55:25;;;;;;;48.42;8.82;;;;;;;7.72;100.00;99441.97;5020579;28;20402;-84
2021/12/24 00:57:55;;;;;;;25.42;5.13;;;;;;;7.89;100.00;99445.25;5008611;28;20037;-84
2021/12/24 01:00:23;;;;;;;30.67;7.28;;;;;;;8.05;100.00;99441.50;4988514;28;20449;-84
2021/12/24 01:02:51;;;;;;;31.80;6.40;;;;;;;8.06;100.00;99432.44;5017161;28;20475;-84
2021/12/24 01:05:18;;;;;;;33.70;4.95;;;;;;;8.09;100.00;99430.19;5021740;28;20041;-84
2021/12/24 01:07:45;;;;;;;24.80;5.25;;;;;;;8.02;100.00;99425.78;4990931;28;20131;-83
2021/12/24 01:10:13;;;;;;;28.67;5.43;;;;;;;8.16;100.00;99449.00;5006193;28;20030;-83
2021/12/24 01:12:38;;;;;;;28.38;5.47;;;;;;;8.13;100.00;99449.41;5002071;28;20044;-83
2021/12/24 01:15:06;;;;;;;23.45;5.68;;;;;;;8.19;100.00;99447.78;4989170;28;20033;-84
2021/12/24 01:17:44;;;;;;;25.83;5.18;;;;;;;8.16;100.00;99454.34;5016249;28;20043;-84
2021/12/24 01:20:30;;;;;;;36.15;4.68;;;;;;;8.06;100.00;99449.31;4999576;28;20042;-85
2021/12/24 01:25:50;;;;;;;31.17;5.63;;;;;;;7.78;100.00;99398.41;5020478;28;20031;-85
2021/12/24 01:39:24;;;;;;;21.15;4.57;;;;;;;8.20;100.00;99420.81;5020155;28;20369;-84
2021/12/24 01:44:27;;;;;;;30.77;4.38;;;;;;;8.26;100.00;99416.56;5003440;28;20036;-84
2021/12/24 01:46:58;;;;;;;19.67;4.63;;;;;;;8.16;100.00;99400.81;4988308;28;20068;-84
2021/12/24 01:49:24;;;;;;;26.48;4.38;;;;;;;8.14;100.00;99403.66;5022240;28;20037;-84
2021/12/24 01:51:51;;;;;;;30.13;3.70;;;;;;;8.05;100.00;99394.13;5008757;28;20391;-84
2021/12/24 01:54:17;;;;;;;32.53;3.85;;;;;;;8.01;100.00;99398.19;4991521;28;20121;-85
2021/12/24 01:56:43;;;;;;;25.48;4.32;;;;;;;7.83;100.00;99390.66;5027094;28;20117;-85
2021/12/24 01:59:09;;;;;;;34.15;4.50;;;;;;;7.75;100.00;99392.59;5008458;28;20041;-84
2021/12/24 02:01:35;;;;;;;20.17;3.85;;;;;;;7.81;100.00;99392.69;5009522;28;20037;-83
2021/12/24 02:04:01;;;;;;;20.30;3.53;;;;;;;7.91;100.00;99397.69;5011308;28;20029;-83
2021/12/24 02:06:26;;;;;;;22.90;3.63;;;;;;;7.96;100.00;99395.28;5027923;28;20124;-85
2021/12/24 02:08:52;;;;;;;24.77;3.67;;;;;;;8.03;100.00;99390.00;4992719;28;20035;-84
2021/12/24 02:11:18;;;;;;;19.13;3.65;;;;;;;8.11;100.00;99387.16;5028363;28;20532;-84
2021/12/24 02:13:44;;;;;;;30.63;4.10;;;;;;;8.22;100.00;99397.34;5010304;28;20033;-84
2021/12/24 02:29:21;;;;;;;23.30;3.10;;;;;;;8.29;100.00;99373.31;5023066;28;20037;-85
2021/12/24 02:31:47;;;;;;;20.13;3.58;;;;;;;8.23;100.00;99361.53;5025267;28;20033;-85
2021/12/24 02:34:13;;;;;;;16.17;2.85;;;;;;;8.24;100.00;99359.69;5010536;28;20504;-84
2021/12/24 02:36:39;;;;;;;20.25;4.13;;;;;;;8.13;100.00;99348.47;5008200;28;20038;-84
2021/12/24 02:39:05;;;;;;;19.73;3.13;;;;;;;8.08;100.00;99342.06;5025372;28;20037;-85
2021/12/24 02:41:31;;;;;;;22.98;2.83;;;;;;;8.13;100.00;99339.63;5007230;28;20045;-84
2021/12/24 02:43:59;;;;;;;15.80;2.58;;;;;;;8.24;100.00;99333.72;5018003;28;20054;-85
2021/12/24 02:46:34;;;;;;;17.38;2.88;;;;;;;8.21;100.00;99334.13;5002321;28;20271;-84
2021/12/24 02:53:54;;;;;;;15.52;2.17;;;;;;;8.21;100.00;99334.13;5010622;28;20372;-84
2021/12/24 02:54:32;;;;;;;14.45;2.72;;;;;;;8.14;100.00;99309.13;5008472;28;20083;-84
2021/12/24 02:57:07;;;;;;;18.30;3.03;;;;;;;8.00;100.00;99308.22;5023323;28;20026;-85
2021/12/24 02:59:36;;;;;;;16.92;2.40;;;;;;;8.07;100.00;99324.31;5008859;28;20475;-84
2021/12/24 03:02:02;;;;;;;14.05;2.75;;;;;;;7.95;100.00;99285.75;5024406;28;20108;-82
2021/12/24 03:04:28;;;;;;;11.45;2.22;;;;;;;8.03;100.00;99293.63;5023159;28;20541;-83
2021/12/24 03:06:54;;;;;;;19.88;3.10;;;;;;;8.06;100.00;99299.41;5026295;28;20029;-85
2021/12/24 03:09:20;;;;;;;15.40;2.65;;;;;;;8.09;100.00;99299.00;5009489;28;20038;-85
2021/12/24 03:11:47;;;;;;;14.55;3.03;;;;;;;8.13;100.00;99294.09;5024711;28;20044;-85
2021/12/24 03:14:15;;;;;;;10.05;2.67;;;;;;;8.14;100.00;99288.53;5040135;28;20044;-85
2021/12/24 03:16:44;;;;;;;18.02;3.13;;;;;;;8.10;100.00;99279.25;5019301;28;20037;-85
2021/12/24 03:19:11;;;;;;;14.05;2.10;;;;;;;8.13;100.00;99283.41;5005240;28;20037;-82
2021/12/24 03:21:52;;;;;;;17.27;2.17;;;;;;;8.12;100.00;99254.94;5007205;28;20034;-83
2021/12/24 03:26:47;;;;;;;10.00;3.22;;;;;;;8.14;100.00;99275.16;5017981;28;20033;-85
2021/12/24 03:29:15;;;;;;;15.70;3.33;;;;;;;8.13;100.00;99267.34;5005890;28;20038;-84
2021/12/24 03:31:41;;;;;;;24.60;3.72;;;;;;;8.13;100.00;99264.66;5024303;28;20029;-85
2021/12/24 03:34:09;;;;;;;14.75;2.33;;;;;;;8.13;100.00;99272.69;5029162;28;20039;-84
2021/12/24 03:36:35;;;;;;;21.80;4.32;;;;;;;8.18;100.00;99253.34;5025812;28;20029;-84
2021/12/24 03:39:00;;;;;;;16.88;4.03;;;;;;;8.38;100.00;99260.47;5009847;28;20080;-84
2021/12/24 03:41:26;;;;;;;13.85;3.17;;;;;;;8.48;100.00;99251.28;5010013;28;20041;-84
2021/12/24 03:43:53;;;;;;;12.98;1.92;;;;;;;8.42;100.00;99244.03;5005022;28;20049;-84
2021/12/24 03:46:25;;;;;;;17.20;3.22;;;;;;;8.32;100.00;99242.50;5017573;28;20042;-85
2021/12/24 03:48:58;;;;;;;11.98;2.58;;;;;;;8.24;100.00;99233.81;5020006;28;20045;-85
2021/12/24 03:56:35;;;;;;;5.60;1.50;;;;;;;8.21;100.00;99227.00;5009240;28;20034;-84
2021/12/24 03:59:02;;;;;;;14.52;1.95;;;;;;;8.15;100.00;99217.09;5023765;28;20048;-85
2021/12/24 04:01:28;;;;;;;18.75;2.58;;;;;;;8.18;100.00;99224.75;5019701;28;20030;-84
2021/12/24 04:03:53;;;;;;;19.70;3.13;;;;;;;8.12;100.00;99217.47;5007435;28;20592;-85
2021/12/24 04:06:19;;;;;;;11.15;2.42;;;;;;;8.09;100.00;99223.22;5008119;28;20468;-83
2021/12/24 04:08:45;;;;;;;15.45;2.45;;;;;;;8.14;100.00;99220.78;4989362;28;20118;-84
2021/12/24 04:11:11;;;;;;;12.00;3.22;;;;;;;8.15;100.00;99230.50;5010309;28;20556;-85
2021/12/24 04:13:37;;;;;;;14.02;1.98;;;;;;;8.16;100.00;99213.41;4990236;28;20040;-85
2021/12/24 04:16:03;;;;;;;15.15;3.13;;;;;;;8.15;100.00;99209.06;5020610;28;20029;-85
2021/12/24 04:26:25;;;;;;;12.02;2.30;;;;;;;8.41;100.00;99188.81;5051533;28;20067;-84
2021/12/24 04:28:51;;;;;;;16.58;2.03;;;;;;;8.36;100.00;99176.84;5011004;28;20116;-83
2021/12/24 04:31:20;;;;;;;15.88;2.40;;;;;;;8.44;100.00;99189.25;5006303;28;20209;-85
2021/12/24 04:33:48;;;;;;;9.75;2.10;;;;;;;8.53;100.00;99185.34;5002507;28;20062;-85
2021/12/24 05:03:10;;;;;;;19.25;2.47;;;;;;;8.46;100.00;99164.94;5007644;28;20103;-85
2021/12/24 05:05:43;;;;;;;9.50;1.70;;;;;;;8.54;100.00;99162.06;4985569;28;20040;-85
2021/12/24 05:10:40;;;;;;;18.42;3.88;;;;;;;8.73;100.00;99142.56;5003747;28;20369;-85
2021/12/24 05:13:07;;;;;;;6.63;2.10;;;;;;;8.80;100.00;99132.66;5030821;28;20041;-85
2021/12/24 05:15:36;;;;;;;13.00;1.98;;;;;;;8.87;100.00;99132.66;5020793;28;20104;-84
2021/12/24 05:18:13;;;;;;;16.50;2.47;;;;;;;8.90;100.00;99128.75;4988485;28;20124;-82
2021/12/24 05:23:23;;;;;;;9.82;2.25;;;;;;;8.74;100.00;99114.72;5024914;28;20037;-84
2021/12/24 05:25:50;;;;;;;13.07;2.13;;;;;;;8.59;100.00;99106.03;5010010;28;20471;-85
2021/12/24 05:28:17;;;;;;;12.98;1.58;;;;;;;8.59;100.00;99112.19;5007092;28;20346;-85
2021/12/24 05:30:43;;;;;;;11.80;2.40;;;;;;;8.42;100.00;99099.41;5035614;28;20194;-83
2021/12/24 05:33:13;;;;;;;14.00;3.28;;;;;;;8.48;100.00;99095.91;5003244;28;20067;-85
2021/12/24 05:35:39;;;;;;;19.25;2.25;;;;;;;8.53;100.00;99101.50;5010823;28;20060;-84
2021/12/24 05:38:04;;;;;;;16.05;2.38;;;;;;;8.45;100.00;99093.66;4988817;28;20037;-85
2021/12/24 05:40:30;;;;;;;15.77;2.03;;;;;;;8.40;100.00;99085.41;4993397;28;20478;-84
2021/12/24 05:42:56;;;;;;;14.45;2.00;;;;;;;8.37;100.00;99084.72;5028359;28;20034;-84
2021/12/24 05:45:24;;;;;;;22.30;3.45;;;;;;;8.35;100.00;99089.47;5008018;28;20128;-84
2021/12/24 05:47:50;;;;;;;21.75;2.03;;;;;;;8.11;100.00;99049.84;5026207;28;20067;-85
2021/12/24 05:50:16;;;;;;;9.60;1.88;;;;;;;8.25;100.00;99075.63;5024155;28;20112;-85
2021/12/24 05:52:41;;;;;;;19.48;2.08;;;;;;;8.27;100.00;99091.50;5011306;28;20038;-84
2021/12/24 05:55:08;;;;;;;17.77;3.30;;;;;;;8.28;100.00;99085.13;5019133;28;20034;-84
2021/12/24 05:57:33;;;;;;;16.50;2.75;;;;;;;8.26;100.00;99068.44;4997578;28;20129;-84
2021/12/24 06:00:04;;;;;;;15.18;2.28;;;;;;;8.29;100.00;99076.06;5057410;28;20112;-81
2021/12/24 06:02:30;;;;;;;16.23;2.40;;;;;;;8.24;100.00;99054.44;5013213;28;20471;-84
2021/12/24 06:04:56;;;;;;;20.33;2.33;;;;;;;8.32;100.00;99062.28;5021874;28;20046;-85
2021/12/24 06:07:22;;;;;;;20.08;3.15;;;;;;;8.29;100.00;99058.16;5023251;28;21043;-85
2021/12/24 06:09:47;;;;;;;19.58;2.97;;;;;;;8.33;100.00;99047.84;5043183;28;20183;-85
2021/12/24 06:12:13;;;;;;;23.10;3.47;;;;;;;8.17;100.00;99027.63;5017803;28;20430;-84
2021/12/24 06:14:40;;;;;;;20.63;3.38;;;;;;;8.34;100.00;99055.69;4991863;28;20475;-84
2021/12/24 06:17:13;;;;;;;13.02;2.13;;;;;;;8.35;100.00;99060.00;5035418;28;20053;-83
2021/12/24 06:19:39;;;;;;;21.23;2.53;;;;;;;8.35;100.00;99054.66;5022976;28;20025;-85
2021/12/24 06:22:04;;;;;;;14.30;1.35;;;;;;;8.37;100.00;99060.63;5008653;28;20072;-85
2021/12/24 06:24:30;;;;;;;19.75;2.58;;;;;;;8.41;100.00;99057.56;5025858;28;20033;-84
2021/12/24 06:26:56;;;;;;;33.67;3.88;;;;;;;8.41;100.00;99049.53;5010025;28;20034;-85
2021/12/24 06:29:21;;;;;;;21.88;2.67;;;;;;;8.38;100.00;99056.91;5009873;28;20490;-84
2021/12/24 06:31:47;;;;;;;17.30;2.05;;;;;;;8.31;100.00;99049.91;5002166;28;20132;-85
2021/12/24 06:34:13;;;;;;;9.52;1.80;;;;;;;8.43;100.00;99058.19;4994936;28;20891;-85
2021/12/24 06:36:42;;;;;;;28.15;3.15;;;;;;;8.43;100.00;99055.53;5005818;28;20053;-85
2021/12/24 06:39:08;;;;;;;6.45;2.30;;;;;;;8.47;100.00;99056.78;5021645;28;20025;-85
2021/12/24 06:41:33;;;;;;;12.88;2.10;;;;;;;8.45;100.00;99038.22;5026200;28;20565;-85
2021/12/24 06:44:00;;;;;;;9.80;1.55;;;;;;;8.49;100.00;99038.63;5028560;28;20486;-81
2021/12/24 06:46:26;;;;;;;15.88;3.03;;;;;;;8.54;100.00;99028.94;5023283;28;21918;-85
2021/12/24 06:48:53;;;;;;;14.45;3.55;;;;;;;8.57;100.00;99030.38;5004524;28;20115;-84
2021/12/24 06:51:20;;;;;;;22.08;3.05;;;;;;;8.61;100.00;99034.31;5024102;28;20037;-84
2021/12/24 06:53:46;;;;;;;21.25;2.47;;;;;;;8.65;100.00;99034.72;5003011;28;20050;-84
2021/12/24 06:56:11;;;;;;;9.90;1.75;;;;;;;8.71;100.00;99039.28;5010603;28;20021;-84
2021/12/24 06:58:37;;;;;;;19.33;2.90;;;;;;;8.72;100.00;99039.06;4993330;28;20116;-84
2021/12/24 07:01:04;;;;;;;21.48;2.13;;;;;;;8.69;100.00;99035.97;5019232;28;20034;-85
2021/12/24 07:03:29;;;;;;;14.30;3.30;;;;;;;8.79;100.00;99031.03;5027171;28;20383;-84
2021/12/24 07:05:55;;;;;;;18.30;2.75;;;;;;;8.80;100.00;99025.44;4987391;28;20041;-85
2021/12/24 07:08:21;;;;;;;22.55;3.25;;;;;;;8.88;100.00;99032.47;4996160;28;20040;-85
2021/12/24 07:10:47;;;;;;;16.52;3.25;;;;;;;8.88;100.00;99028.97;4992526;28;20135;-84
2021/12/24 07:13:13;;;;;;;16.50;2.83;;;;;;;8.90;100.00;99022.34;5013893;28;20037;-85
2021/12/24 07:15:38;;;;;;;20.05;2.22;;;;;;;8.98;100.00;99024.00;4989193;28;20373;-84
2021/12/24 07:18:04;;;;;;;6.65;2.13;;;;;;;9.11;100.00;99033.91;5002786;28;20108;-85
2021/12/24 07:20:30;;;;;;;13.45;2.60;;;;;;;9.11;100.00;99015.94;5004839;28;20104;-85
2021/12/24 07:22:56;;;;;;;17.73;2.83;;;;;;;9.19;100.00;99020.25;5020595;28;20061;-85
2021/12/24 07:25:26;;;;;;;16.55;2.50;;;;;;;9.18;100.00;99011.41;5021782;28;20025;-84
2021/12/24 07:28:22;;;;;;;16.23;3.30;;;;;;;9.18;100.00;98999.81;5000881;28;20045;-85
2021/12/24 07:30:50;;;;;;;12.57;2.33;;;;;;;9.20;100.00;99006.63;5023120;28;20091;-85
2021/12/24 07:33:16;;;;;;;12.38;2.33;;;;;;;9.25;100.00;98997.97;4985200;28;20037;-85
2021/12/24 07:35:43;;;;;;;7.57;2.85;;;;;;;9.36;100.00;98993.81;5020582;28;20041;-85
2021/12/24 07:38:09;;;;;;;13.32;2.67;;;;;;;9.38;100.00;98989.06;5021407;28;20044;-84
2021/12/24 07:40:36;;;;;;;18.60;2.53;;;;;;;9.37;100.00;98990.09;4989687;28;20128;-83
2021/12/24 07:43:02;;;;;;;12.25;1.90;;;;;;;9.39;100.00;98988.88;5001824;28;20084;-85
2021/12/24 07:45:28;;;;;;;17.35;3.08;;;;;;;9.31;100.00;98988.25;5021198;28;20048;-84
2021/12/24 07:53:17;;;;;;;27.33;2.63;;;;;;;9.15;100.00;98990.34;5016563;28;20514;-85
2021/12/24 07:55:43;;;;;;;16.75;2.60;;;;;;;9.14;100.00;98995.94;5006556;28;20137;-85
2021/12/24 07:58:09;;;;;;;10.48;2.42;;;;;;;9.07;100.00;98982.53;4986234;28;20459;-84
2021/12/24 08:00:37;;;;;;;12.68;2.75;;;;;;;9.01;100.00;98980.69;5018031;28;20514;-85
2021/12/24 08:03:03;;;;;;;22.65;2.50;;;;;;;9.02;100.00;98982.31;5017666;28;20033;-85
2021/12/24 08:05:30;;;;;;;8.77;2.08;;;;;;;9.00;100.00;98973.69;5003455;28;20236;-85
2021/12/24 08:07:56;;;;;;;18.65;2.72;;;;;;;9.10;100.00;98983.97;5016448;28;20030;-85
2021/12/24 08:10:24;;;;;;;23.20;3.63;;;;;;;8.94;100.00;98964.59;5005756;28;20207;-85
2021/12/24 08:12:50;;;;;;;12.57;3.30;;;;;;;8.91;100.00;98959.66;5018221;28;20026;-86
2021/12/24 08:15:17;;;;;;;16.50;3.25;;;;;;;8.89;100.00;98958.22;5023272;28;20026;-85
2021/12/24 08:17:43;;;;;;;14.63;2.45;;;;;;;9.02;100.00;98972.44;5010116;28;20033;-85
2021/12/24 08:20:09;;;;;;;12.77;2.30;;;;;;;8.95;100.00;98960.91;5006964;28;20056;-85
2021/12/24 08:22:35;;;;;;;10.70;2.20;;;;;;;8.98;100.00;98955.13;5005859;28;20021;-84
2021/12/24 08:25:01;;;;;;;9.77;2.40;;;;;;;8.98;100.00;98957.00;5002463;28;20072;-83
2021/12/24 08:27:26;;;;;;;10.13;2.20;;;;;;;8.95;100.00;98949.38;5019746;28;20037;-84
2021/12/24 08:29:52;;;;;;;12.55;3.55;;;;;;;8.91;100.00;98954.31;5007861;28;20042;-83
2021/12/24 08:32:18;;;;;;;12.82;2.33;;;;;;;8.89;100.00;98968.94;4997564;28;20459;-84
2021/12/24 08:34:44;;;;;;;18.48;2.85;;;;;;;8.87;100.00;98955.78;5009185;28;20042;-84
2021/12/24 08:37:10;;;;;;;12.93;2.15;;;;;;;8.91;100.00;98967.72;5015708;28;20120;-84
2021/12/24 08:39:36;;;;;;;12.40;2.20;;;;;;;8.83;100.00;98953.72;4994159;28;20083;-83
2021/12/24 08:42:02;;;;;;;17.70;3.55;;;;;;;8.87;100.00;98954.97;4995206;28;20045;-83
2021/12/24 08:44:31;;;;;;;20.73;2.85;;;;;;;8.82;100.00;98952.06;5011439;28;20156;-84
2021/12/24 08:47:01;;;;;;;15.45;2.03;;;;;;;8.79;100.00;98951.47;5012487;28;20392;-84
2021/12/24 08:49:30;;;;;;;11.00;2.35;;;;;;;8.78;100.00;98947.09;4987652;28;20044;-83
2021/12/24 08:51:56;;;;;;;12.43;2.15;;;;;;;8.72;100.00;98942.59;5007950;28;20029;-84
2021/12/24 08:54:24;;;;;;;11.13;2.08;;;;;;;8.63;100.00;98926.97;5006748;28;20029;-84
2021/12/24 08:56:50;;;;;;;16.30;2.92;;;;;;;8.60;100.00;98925.53;5027313;28;20122;-84
2021/12/24 08:59:17;;;;;;;17.25;2.35;;;;;;;8.76;100.00;98940.34;5019654;28;20034;-84
2021/12/24 09:01:43;;;;;;;8.82;2.40;;;;;;;8.74;100.00;98945.06;5029434;28;20033;-84
2021/12/24 09:04:09;;;;;;;10.85;1.92;;;;;;;8.74;100.00;98932.50;5029725;28;20040;-84
2021/12/24 09:06:35;;;;;;;14.70;2.38;;;;;;;8.69;100.00;98924.25;5013926;28;20061;-84
2021/12/24 09:09:02;;;;;;;6.38;1.70;;;;;;;8.78;100.00;98935.56;5009007;28;20525;-83
2021/12/24 09:11:27;;;;;;;10.38;2.60;;;;;;;8.74;100.00;98919.09;5014646;28;20117;-84
2021/12/24 09:13:53;;;;;;;13.45;2.00;;;;;;;8.80;100.00;98928.97;4998254;28;20120;-84
2021/12/24 09:16:19;;;;;;;7.18;1.85;;;;;;;8.83;100.00;98917.00;5031153;28;21829;-82
2021/12/24 09:18:45;;;;;;;8.60;2.25;;;;;;;8.83;100.00;98917.00;4998832;28;20087;-84
2021/12/24 09:21:19;;;;;;;6.97;2.83;;;;;;;8.78;100.00;98904.22;5032663;28;20116;-84
2021/12/24 09:23:48;;;;;;;9.98;2.05;;;;;;;8.83;100.00;98914.31;5002837;28;20033;-84
2021/12/24 09:26:14;;;;;;;8.57;1.80;;;;;;;8.81;100.00;98903.00;4997086;28;20050;-84
2021/12/24 09:28:39;;;;;;;5.63;1.73;;;;;;;8.88;100.00;98911.84;5008298;28;20041;-84
2021/12/24 09:31:05;;;;;;;7.97;1.40;;;;;;;8.84;100.00;98909.78;5013306;28;20088;-83
2021/12/24 09:33:31;;;;;;;4.68;1.42;;;;;;;8.51;100.00;98876.69;5012644;28;20041;-84
2021/12/24 09:35:56;;;;;;;20.65;3.30;;;;;;;8.49;100.00;98891.31;5026095;28;20033;-83
2021/12/24 09:38:22;;;;;;;18.95;2.60;;;;;;;8.53;100.00;98908.63;4996265;28;20034;-82
2021/12/24 09:40:48;;;;;;;13.13;3.30;;;;;;;8.43;100.00;98890.28;5012501;28;20142;-83
2021/12/24 09:43:13;;;;;;;9.10;2.00;;;;;;;8.44;100.00;98901.81;5028588;28;20065;-82
2021/12/24 09:45:39;;;;;;;8.57;1.02;;;;;;;8.44;100.00;98899.97;5012504;28;20036;-83
2021/12/24 09:48:05;;;;;;;2.08;1.00;;;;;;;8.43;100.00;98895.66;4997543;28;20052;-83
2021/12/24 09:50:31;;;;;;;0.70;0.70;;;;;;;8.43;100.00;98895.66;5001143;28;20033;-83
2021/12/24 09:52:56;;;;;;;3.95;2.25;;;;;;;8.37;100.00;98883.06;5011931;28;20041;-84
2021/12/24 09:55:26;;;;;;;0.50;0.50;;;;;;;8.24;100.00;98850.94;5028764;28;20041;-83
2021/12/24 09:57:52;;;;;;;0.50;0.50;;;;;;;8.43;100.00;98884.13;5025409;28;20077;-83
2021/12/24 10:00:20;;;;;;;4.57;1.45;;;;;;;8.36;100.00;98874.22;4993456;28;20072;-84
2021/12/24 10:02:50;;;;;;;0.50;0.50;;;;;;;8.50;100.00;98890.28;5013351;28;20033;-83
2021/12/24 10:05:25;;;;;;;0.40;0.40;;;;;;;8.45;100.00;98869.47;5060190;28;20037;-83
2021/12/24 10:07:51;;;;;;;1.50;1.08;;;;;;;8.56;100.00;98886.78;5027888;28;20025;-84
2021/12/24 10:10:25;;;;;;;4.65;0.73;;;;;;;8.50;100.00;98879.56;4998741;28;20383;-84
2021/12/24 10:12:51;;;;;;;;;;;;;;;8.60;100.00;98882.66;4998179;28;20049;-84
2021/12/24 10:15:16;;;;;;;0.40;0.40;;;;;;;8.63;100.00;98892.94;5028481;28;19927;-83
2021/12/24 10:17:43;;;;;;;0.65;0.65;;;;;;;8.64;100.00;98872.34;4992704;28;20037;-83
2021/12/24 10:20:17;;;;;;;0.88;0.85;;;;;;;8.73;100.00;98881.78;5022852;28;20136;-83
2021/12/24 10:23:01;;;;;;;;;;;;;;;8.85;100.00;98890.00;5029251;28;20098;-82
2021/12/24 10:25:29;;;;;;;0.50;0.50;;;;;;;8.63;100.00;98847.41;5025194;28;20428;-83
2021/12/24 10:27:55;;;;;;;0.45;0.45;;;;;;;8.90;100.00;98895.56;5012945;28;20052;-83
2021/12/24 10:30:24;;;;;;;1.23;1.23;;;;;;;8.92;100.00;98896.19;5010688;28;20025;-83
2021/12/24 10:32:51;;;;;;;15.57;2.05;;;;;;;8.89;100.00;98880.50;5011350;28;20490;-83
2021/12/24 10:35:22;;;;;;;2.25;2.15;;;;;;;9.01;100.00;98898.41;4994405;28;20476;-82
2021/12/24 10:38:17;;;;;;;1.17;1.13;;;;;;;8.99;100.00;98888.94;4994154;28;20487;-83
2021/12/24 10:40:50;;;;;;;1.98;1.85;;;;;;;9.02;100.00;98893.88;5025213;28;20172;-84
2021/12/24 10:43:27;;;;;;;0.50;0.50;;;;;;;9.03;100.00;98901.72;4992417;28;20040;-83
2021/12/24 10:46:16;;;;;;;0.80;0.80;;;;;;;9.05;100.00;98906.03;4994115;28;20267;-83
2021/12/24 10:49:08;;;;;;;4.65;2.78;;;;;;;9.05;100.00;98904.19;5021502;28;20724;-83
2021/12/24 10:52:00;;;;;;;0.93;0.93;;;;;;;9.10;100.00;98908.91;4994520;28;20037;-83
2021/12/24 10:54:27;;;;;;;0.40;0.40;;;;;;;9.10;100.00;98912.38;4991716;28;20146;-83
2021/12/24 10:56:54;;;;;;;0.50;0.50;;;;;;;9.14;100.00;98908.25;5024087;28;20033;-83
2021/12/24 10:59:44;;;;;;;0.55;0.55;;;;;;;9.17;100.00;98904.34;5013575;28;20036;-83
2021/12/24 11:02:11;;;;;;;0.85;0.85;;;;;;;9.25;100.00;98906.78;5009935;28;20403;-83
2021/12/24 11:04:37;;;;;;;0.60;0.60;;;;;;;9.31;100.00;98905.91;4998005;28;20037;-83
2021/12/24 11:07:26;;;;;;;0.50;0.50;;;;;;;9.40;100.00;98903.84;5013794;28;20415;-83
2021/12/24 11:10:37;;;;;;;0.50;0.50;;;;;;;9.56;100.00;98902.53;5020523;28;20054;-84
2021/12/24 11:13:11;;;;;;;0.40;0.40;;;;;;;9.71;100.00;98908.41;5023074;28;20057;-83
2021/12/24 11:15:47;;;;;;;0.40;0.40;;;;;;;9.91;100.00;98911.78;4998727;28;20454;-83
2021/12/24 11:18:19;;;;;;;0.95;0.95;;;;;;;10.10;100.00;98909.19;5014099;28;20030;-83
2021/12/24 11:20:49;;;;;;;1.67;1.63;;;;;;;10.31;100.00;98910.72;5029495;28;20044;-83
2021/12/24 11:23:16;;;;;;;0.50;0.50;;;;;;;10.51;100.00;98913.25;5027064;28;20079;-84
2021/12/24 11:25:48;;;;;;;4.03;2.90;;;;;;;10.68;100.00;98905.41;5012364;28;20029;-83
2021/12/24 11:28:15;;;;;;;1.95;1.85;;;;;;;10.83;100.00;98922.03;5030389;28;20080;-84
2021/12/24 11:30:49;;;;;;;5.93;3.00;;;;;;;10.88;100.00;98916.81;4997965;28;20471;-81
2021/12/24 11:33:17;;;;;;;1.88;1.60;;;;;;;10.89;100.00;98914.94;5013681;28;20034;-84
2021/12/24 11:35:44;;;;;;;4.47;2.75;;;;;;;10.99;100.00;98918.75;5010380;28;20242;-85
2021/12/24 11:38:24;;;;;;;0.75;0.73;;;;;;;11.02;100.00;98911.28;5030448;28;20029;-84
2021/12/24 11:40:51;;;;;;;4.97;1.60;;;;;;;11.00;100.00;98906.94;5028256;28;20030;-84
2021/12/24 11:43:19;;;;;;;0.50;0.50;;;;;;;11.05;100.00;98900.88;5030449;28;20120;-84
2021/12/24 11:45:45;;;;;;;4.25;3.88;;;;;;;11.17;100.00;98907.16;5011409;28;20540;-84
2021/12/24 11:48:10;;;;;;;7.95;2.60;;;;;;;11.22;100.00;98893.06;5030172;28;20537;-85
2021/12/24 11:50:37;;;;;;;1.65;1.55;;;;;;;11.30;100.00;98897.28;5029949;28;20033;-84
2021/12/24 11:53:15;;;;;;;1.52;1.42;;;;;;;11.36;100.00;98902.59;5013661;28;20052;-84
2021/12/24 11:55:44;;;;;;;0.50;0.50;;;;;;;11.44;100.00;98899.59;5012969;28;20123;-84
2021/12/24 11:58:22;;;;;;;2.03;1.92;;;;;;;11.51;100.00;98898.66;4999583;28;20060;-85
2021/12/24 12:00:56;;;;;;;0.70;0.70;;;;;;;11.59;100.00;98887.59;5013275;28;20124;-85
2021/12/24 12:03:40;;;;;;;1.13;1.13;;;;;;;11.68;100.00;98888.09;5029940;28;20026;-85
2021/12/24 12:06:10;;;;;;;1.88;1.77;;;;;;;11.74;100.00;98887.19;5013472;28;20034;-85
2021/12/24 12:08:39;;;;;;;3.15;2.85;;;;;;;11.71;100.00;98896.53;4996986;28;20625;-85
2021/12/24 12:11:06;;;;;;;2.97;1.55;;;;;;;11.95;100.00;98899.34;4997510;28;20493;-85
2021/12/24 12:13:42;;;;;;;2.90;2.70;;;;;;;12.19;100.00;98900.19;5013126;28;20094;-84
2021/12/24 12:16:10;;;;;;;1.15;1.08;;;;;;;12.10;100.00;98864.69;5029081;28;20021;-85
2021/12/24 12:18:48;;;;;;;0.80;0.80;;;;;;;12.43;100.00;98885.69;4995286;28;20037;-84
2021/12/24 12:21:18;;;;;;;5.90;5.32;;;;;;;12.43;100.00;98888.38;4997402;28;20029;-85
2021/12/24 12:26:49;;;;;;;11.82;10.63;;;;;;;11.84;100.00;98893.66;5029294;28;20033;-84
2021/12/24 12:29:24;;;;;;;3.35;3.10;;;;;;;11.54;100.00;98903.63;4997374;28;20037;-85
2021/12/24 12:32:14;;;;;;;5.88;5.30;;;;;;;11.30;100.00;98891.91;4994345;28;20033;-85
2021/12/24 12:34:43;;;;;;;5.82;3.03;;;;;;;11.15;100.00;98895.81;5004009;28;20049;-85
2021/12/24 12:37:22;;;;;;;5.97;5.03;;;;;;;10.91;100.00;98892.16;5030544;28;20441;-83
2021/12/24 12:39:54;;;;;;;5.18;4.70;;;;;;;10.82;100.00;98889.97;5021044;28;20033;-83
2021/12/24 12:42:21;;;;;;;1.65;1.55;;;;;;;10.69;100.00;98897.16;4994486;28;20636;-83
2021/12/24 12:44:52;;;;;;;0.50;0.50;;;;;;;10.59;100.00;98896.00;4994992;28;20041;-83
2021/12/24 12:47:24;;;;;;;0.40;0.40;;;;;;;10.56;100.00;98890.03;5012822;28;20356;-83
2021/12/24 12:50:14;;;;;;;0.80;0.80;;;;;;;10.64;100.00;98898.81;5002082;28;20034;-83
2021/12/24 12:52:41;;;;;;;1.30;1.30;;;;;;;10.33;100.00;98895.19;4992455;28;20038;-83
2021/12/24 12:55:31;;;;;;;0.50;0.50;;;;;;;9.99;100.00;98885.72;5018142;28;20196;-83
2021/12/24 12:58:22;;;;;;;0.40;0.40;;;;;;;9.97;100.00;98904.72;4992488;28;20506;-84
2021/12/24 13:01:14;;;;;;;0.60;0.60;;;;;;;10.16;100.00;98897.59;5054410;28;20553;-84
2021/12/24 13:04:03;;;;;;;0.80;0.80;;;;;;;10.57;100.00;98905.09;5019954;28;20101;-84
2021/12/24 13:06:36;;;;;;;1.63;1.20;;;;;;;10.72;100.00;98906.63;5008955;28;20037;-84
2021/12/24 13:09:09;;;;;;;0.50;0.50;;;;;;;10.57;100.00;98891.66;5008623;28;20107;-83
2021/12/24 13:11:46;;;;;;;0.50;0.50;;;;;;;10.51;100.00;98897.94;5009273;28;20060;-85
2021/12/24 13:14:13;;;;;;;0.60;0.60;;;;;;;10.54;100.00;98904.72;5023896;28;20038;-84
2021/12/24 13:17:04;;;;;;;1.30;1.25;;;;;;;12.40;100.00;98896.13;5002456;28;20037;-84
2021/12/24 13:22:32;;;;;;;1.00;1.00;;;;;;;18.70;75.19;98906.91;5029986;28;20143;-83
2021/12/24 13:25:12;;;;;;;2.47;1.88;;;;;;;20.49;67.87;98900.63;4996321;28;20501;-84
2021/12/24 13:27:41;;;;;;;0.80;0.80;;;;;;;20.02;66.35;98904.78;4993484;28;20034;-84